Time;durP1;ratioP1;P1;durP2;ratioP2;P2;SDS_P1;SDS_P2;PMS_P1;PMS_P2;Temp;Humidity;BMP_temperature;BMP_pressure;BME280_temperature;BME280_humidity;BME280_pressure;Samples;Min_cycle;Max_cycle;Signal;HPM_P1;HPM_P2
2022/10/14 00:01:19;;;;;;;13.10;11.53;;;15.40;99.90;;;;;;4981453;28;20525;-87
2022/10/14 00:03:45;;;;;;;13.03;11.80;;;15.50;99.90;;;;;;4981877;28;20215;-87
2022/10/14 00:06:15;;;;;;;14.40;12.90;;;15.60;99.90;;;;;;4980438;28;20184;-85
2022/10/14 00:08:42;;;;;;;13.70;12.40;;;15.70;99.90;;;;;;4982090;28;20179;-86
2022/10/14 00:11:14;;;;;;;14.63;13.23;;;15.80;99.90;;;;;;4986384;28;20180;-85
2022/10/14 00:13:40;;;;;;;13.23;12.03;;;15.70;99.90;;;;;;4981889;28;20295;-88
2022/10/14 00:16:17;;;;;;;12.73;11.30;;;15.60;99.90;;;;;;4981353;28;20199;-85
2022/10/14 00:18:46;;;;;;;12.97;11.70;;;15.60;99.90;;;;;;4983811;28;20228;-87
2022/10/14 00:21:12;;;;;;;12.17;11.07;;;15.60;99.90;;;;;;4981769;28;20621;-86
2022/10/14 00:23:38;;;;;;;12.40;11.27;;;15.60;99.90;;;;;;4980402;28;20207;-85
2022/10/14 00:26:04;;;;;;;12.30;11.03;;;15.50;99.90;;;;;;4979440;28;20175;-85
2022/10/14 00:28:30;;;;;;;12.60;11.30;;;15.50;99.90;;;;;;4980487;28;20519;-85
2022/10/14 00:31:01;;;;;;;12.43;11.23;;;15.70;99.90;;;;;;4978148;28;20177;-83
2022/10/14 00:33:28;;;;;;;12.63;11.43;;;15.60;99.90;;;;;;4979427;28;20172;-86
2022/10/14 00:35:59;;;;;;;13.30;11.67;;;15.50;99.90;;;;;;4978244;28;20179;-86
2022/10/14 00:38:25;;;;;;;11.90;10.80;;;15.60;99.90;;;;;;4979749;28;20176;-83
2022/10/14 00:40:52;;;;;;;13.23;11.83;;;15.60;99.90;;;;;;4979714;28;20179;-85
2022/10/14 00:43:18;;;;;;;13.20;11.07;;;15.60;99.90;;;;;;4979146;28;20663;-85
2022/10/14 00:45:44;;;;;;;12.33;11.00;;;15.60;99.90;;;;;;4980266;28;20176;-84
2022/10/14 00:48:12;;;;;;;11.53;10.33;;;15.50;99.90;;;;;;4980407;28;20608;-85
2022/10/14 00:50:40;;;;;;;14.07;10.63;;;15.50;99.90;;;;;;4977257;28;20175;-85
2022/10/14 00:53:06;;;;;;;11.43;10.43;;;15.50;99.90;;;;;;4978837;28;20239;-86
2022/10/14 00:55:32;;;;;;;12.93;10.70;;;15.50;99.90;;;;;;4977371;28;20703;-85
2022/10/14 00:57:58;;;;;;;12.47;11.20;;;15.40;99.90;;;;;;4978997;28;20315;-86
2022/10/14 01:00:24;;;;;;;12.00;10.80;;;15.50;99.90;;;;;;4978083;28;20200;-86
2022/10/14 01:02:49;;;;;;;11.90;10.70;;;15.40;99.90;;;;;;4979099;28;20207;-84
2022/10/14 01:05:19;;;;;;;12.57;11.30;;;15.40;99.90;;;;;;4980048;28;20179;-86
2022/10/14 01:08:14;;;;;;;12.53;11.23;;;15.40;99.90;;;;;;4982869;28;20180;-86
2022/10/14 01:10:58;;;;;;;13.17;11.53;;;15.40;99.90;;;;;;4979998;28;20192;-86
2022/10/14 01:13:34;;;;;;;12.17;10.93;;;15.40;99.90;;;;;;4986765;28;20188;-86
2022/10/14 01:16:21;;;;;;;11.37;10.27;;;15.40;99.90;;;;;;4981094;28;20176;-84
2022/10/14 01:18:58;;;;;;;11.83;10.63;;;15.40;99.90;;;;;;4985853;28;20187;-84
2022/10/14 01:21:33;;;;;;;12.83;11.30;;;15.40;99.90;;;;;;4997897;28;20160;-83
2022/10/14 01:24:28;;;;;;;12.40;10.37;;;15.30;99.90;;;;;;5000613;28;20223;-84
2022/10/14 01:27:21;;;;;;;12.43;11.10;;;15.30;99.90;;;;;;5001356;28;20172;-83
2022/10/14 01:29:56;;;;;;;12.20;11.00;;;15.30;99.90;;;;;;4985430;28;20188;-85
2022/10/14 01:32:48;;;;;;;14.57;12.03;;;15.20;99.90;;;;;;4981143;28;20611;-85
2022/10/14 01:35:27;;;;;;;12.90;11.53;;;15.20;99.90;;;;;;4977742;28;20575;-85
2022/10/14 01:38:02;;;;;;;13.80;12.03;;;15.30;99.90;;;;;;4975983;28;20175;-84
2022/10/14 01:40:41;;;;;;;11.97;10.77;;;15.30;99.90;;;;;;4982635;28;20229;-86
2022/10/14 01:43:08;;;;;;;12.67;10.77;;;15.30;99.90;;;;;;4994702;28;20253;-86
2022/10/14 01:45:36;;;;;;;13.60;12.30;;;15.30;99.90;;;;;;4995184;28;20182;-87
2022/10/14 01:48:04;;;;;;;14.13;11.83;;;15.30;99.90;;;;;;4995604;28;20651;-85
2022/10/14 01:50:32;;;;;;;14.63;11.83;;;15.30;99.90;;;;;;4997673;28;20199;-85
2022/10/14 01:53:03;;;;;;;13.30;11.77;;;15.30;99.90;;;;;;4997070;28;20183;-85
2022/10/14 01:55:35;;;;;;;12.73;11.40;;;15.30;99.90;;;;;;5010034;28;20171;-82
2022/10/14 01:58:02;;;;;;;13.80;12.40;;;15.40;99.90;;;;;;5019449;28;20179;-85
2022/10/14 02:00:28;;;;;;;13.13;11.83;;;15.50;99.90;;;;;;5020518;28;20157;-85
2022/10/14 02:02:54;;;;;;;13.30;11.93;;;15.50;99.90;;;;;;5019205;28;20193;-85
2022/10/14 02:05:50;;;;;;;13.40;12.07;;;15.50;99.90;;;;;;5017843;28;20148;-86
2022/10/14 02:08:53;;;;;;;14.20;12.43;;;15.50;99.90;;;;;;4998818;28;20160;-87
2022/10/14 02:11:27;;;;;;;13.73;12.33;;;15.60;99.90;;;;;;4996091;28;20186;-85
2022/10/14 02:13:53;;;;;;;15.43;12.57;;;15.70;99.90;;;;;;4996933;28;20265;-86
2022/10/14 02:16:40;;;;;;;13.30;12.00;;;15.80;99.90;;;;;;4995628;28;20175;-84
2022/10/14 02:19:34;;;;;;;13.37;11.97;;;15.70;99.90;;;;;;4996004;28;20606;-86
2022/10/14 02:22:05;;;;;;;13.07;11.77;;;15.60;99.90;;;;;;4996309;28;20169;-84
2022/10/14 02:24:39;;;;;;;14.07;12.57;;;15.50;99.90;;;;;;4996799;28;20273;-84
2022/10/14 02:27:10;;;;;;;14.80;12.00;;;15.50;99.90;;;;;;4995196;28;20202;-84
2022/10/14 02:29:37;;;;;;;12.47;11.27;;;15.60;99.90;;;;;;5001695;28;20176;-86
2022/10/14 02:32:05;;;;;;;13.83;12.47;;;15.60;99.90;;;;;;5007379;28;20179;-85
2022/10/14 02:34:34;;;;;;;14.70;12.90;;;15.60;99.90;;;;;;5002820;28;20167;-84
2022/10/14 02:37:01;;;;;;;11.73;10.63;;;15.60;99.90;;;;;;4994476;28;20281;-86
2022/10/14 02:39:31;;;;;;;13.43;11.57;;;15.60;99.90;;;;;;4995654;28;20171;-85
2022/10/14 02:41:56;;;;;;;12.10;10.83;;;15.60;99.90;;;;;;4995820;28;20171;-86
2022/10/14 02:44:22;;;;;;;12.90;11.60;;;15.50;99.90;;;;;;4994489;28;20217;-86
2022/10/14 02:46:48;;;;;;;16.27;14.60;;;15.60;99.90;;;;;;4994230;28;20197;-85
2022/10/14 02:49:15;;;;;;;13.27;11.87;;;15.70;99.90;;;;;;4995541;28;20527;-86
2022/10/14 02:51:41;;;;;;;11.80;10.70;;;15.60;99.90;;;;;;4995774;28;20210;-86
2022/10/14 02:54:06;;;;;;;11.67;10.53;;;15.60;99.90;;;;;;4994715;28;20171;-85
2022/10/14 02:56:32;;;;;;;11.13;10.00;;;15.70;99.90;;;;;;4994643;28;20178;-83
2022/10/14 02:58:58;;;;;;;12.63;11.33;;;15.60;99.90;;;;;;4997073;28;20178;-84
2022/10/14 03:01:23;;;;;;;12.27;11.07;;;15.60;99.90;;;;;;4998564;28;20194;-85
2022/10/14 03:03:49;;;;;;;12.27;10.97;;;15.60;99.90;;;;;;4998215;28;20586;-86
2022/10/14 03:06:15;;;;;;;12.50;10.17;;;15.50;99.90;;;;;;4995134;28;20627;-86
2022/10/14 03:08:40;;;;;;;11.70;10.50;;;15.50;99.90;;;;;;4998681;28;20187;-81
2022/10/14 03:11:06;;;;;;;12.70;11.20;;;15.50;99.90;;;;;;5010285;28;20163;-84
2022/10/14 03:13:32;;;;;;;13.33;11.57;;;15.60;99.90;;;;;;5002095;28;20178;-86
2022/10/14 03:15:58;;;;;;;13.33;11.87;;;15.50;99.90;;;;;;4995346;28;20717;-85
2022/10/14 03:18:24;;;;;;;12.53;11.23;;;15.50;99.90;;;;;;4993894;28;20167;-86
2022/10/14 03:20:49;;;;;;;12.47;11.27;;;15.50;99.90;;;;;;4995207;28;20174;-86
2022/10/14 03:23:15;;;;;;;13.20;11.90;;;15.50;99.90;;;;;;4993273;28;20211;-84
2022/10/14 03:25:44;;;;;;;13.13;10.97;;;15.50;99.90;;;;;;4995119;28;20306;-86
2022/10/14 03:28:10;;;;;;;12.37;10.60;;;15.50;99.90;;;;;;4994083;28;20233;-85
2022/10/14 03:30:35;;;;;;;12.07;10.90;;;15.50;99.90;;;;;;4994436;28;20177;-85
2022/10/14 03:33:01;;;;;;;11.57;10.37;;;15.50;99.90;;;;;;4995122;28;20678;-86
2022/10/14 03:35:27;;;;;;;12.33;10.93;;;15.50;99.90;;;;;;4995262;28;20709;-85
2022/10/14 03:37:53;;;;;;;11.97;10.00;;;15.60;99.90;;;;;;4995038;28;20163;-85
2022/10/14 03:40:19;;;;;;;11.17;10.03;;;15.50;99.90;;;;;;4994097;28;20214;-84
2022/10/14 03:42:45;;;;;;;11.10;9.90;;;15.50;99.90;;;;;;4994209;28;20190;-85
2022/10/14 03:45:12;;;;;;;11.87;9.63;;;15.50;99.90;;;;;;4994858;28;20166;-84
2022/10/14 03:47:37;;;;;;;12.30;9.10;;;15.50;99.90;;;;;;4995269;28;20199;-86
2022/10/14 03:50:04;;;;;;;11.77;10.30;;;15.60;99.90;;;;;;4996215;28;20168;-84
2022/10/14 03:52:31;;;;;;;12.03;10.03;;;15.50;99.90;;;;;;4995934;28;20187;-85
2022/10/14 03:54:57;;;;;;;12.63;10.40;;;15.50;99.90;;;;;;4995594;28;20171;-85
2022/10/14 03:57:23;;;;;;;11.10;9.87;;;15.40;99.90;;;;;;4996867;28;20544;-86
2022/10/14 03:59:49;;;;;;;11.50;10.00;;;15.40;99.90;;;;;;4995741;28;20171;-86
2022/10/14 04:02:14;;;;;;;12.50;11.00;;;15.30;99.90;;;;;;4994050;28;20198;-87
2022/10/14 04:04:40;;;;;;;13.73;11.33;;;15.40;99.90;;;;;;4999122;28;20670;-86
2022/10/14 04:07:05;;;;;;;13.27;11.57;;;15.30;99.90;;;;;;4997988;28;20286;-86
2022/10/14 04:09:31;;;;;;;13.33;10.83;;;15.30;99.90;;;;;;4999465;28;20194;-85
2022/10/14 04:11:57;;;;;;;15.33;12.20;;;15.40;99.90;;;;;;5005767;28;20227;-84
2022/10/14 04:14:24;;;;;;;14.67;11.60;;;15.40;99.90;;;;;;5009613;28;20187;-85
2022/10/14 04:16:49;;;;;;;13.07;11.77;;;15.40;99.90;;;;;;5009916;28;20181;-85
2022/10/14 04:19:16;;;;;;;12.20;10.47;;;15.40;99.90;;;;;;5010874;28;20198;-85
2022/10/14 04:21:42;;;;;;;13.60;11.67;;;15.40;99.90;;;;;;5012105;28;20175;-85
2022/10/14 04:24:07;;;;;;;12.60;11.27;;;15.40;99.90;;;;;;5007329;28;20670;-84
2022/10/14 04:26:33;;;;;;;13.67;11.57;;;15.40;99.90;;;;;;5010608;28;20172;-83
2022/10/14 04:29:00;;;;;;;17.30;11.87;;;15.40;99.90;;;;;;5014444;28;20191;-85
2022/10/14 04:31:27;;;;;;;13.83;11.30;;;15.40;99.90;;;;;;5018335;28;20189;-83
2022/10/14 04:33:53;;;;;;;13.13;11.70;;;15.40;99.90;;;;;;5005755;28;20190;-80
2022/10/14 04:36:21;;;;;;;13.60;11.17;;;15.50;99.90;;;;;;4999598;28;20186;-80
2022/10/14 04:38:47;;;;;;;15.33;11.50;;;15.50;99.90;;;;;;5000870;28;20179;-81
2022/10/14 04:41:15;;;;;;;15.60;11.37;;;15.50;99.90;;;;;;5003265;28;20221;-86
2022/10/14 04:43:46;;;;;;;13.57;11.10;;;15.50;99.90;;;;;;5002729;28;20238;-86
2022/10/14 04:46:13;;;;;;;13.37;11.73;;;15.50;99.90;;;;;;5001394;28;20262;-85
2022/10/14 04:48:38;;;;;;;12.93;11.23;;;15.50;99.90;;;;;;5002741;28;20176;-85
2022/10/14 04:51:05;;;;;;;12.70;11.40;;;15.50;99.90;;;;;;5000826;28;20175;-85
2022/10/14 04:53:31;;;;;;;12.60;11.30;;;15.50;99.90;;;;;;5000809;28;20206;-85
2022/10/14 04:55:56;;;;;;;12.60;10.93;;;15.50;99.90;;;;;;5001261;28;20229;-86
2022/10/14 04:58:22;;;;;;;13.90;12.50;;;15.50;99.90;;;;;;5000387;28;20175;-84
2022/10/14 05:00:48;;;;;;;12.10;10.33;;;15.50;99.90;;;;;;4999228;28;20210;-85
2022/10/14 05:03:14;;;;;;;14.30;10.30;;;15.50;99.90;;;;;;5001565;28;20226;-87
2022/10/14 05:05:39;;;;;;;12.83;10.83;;;15.50;99.90;;;;;;5002190;28;20221;-85
2022/10/14 05:08:05;;;;;;;13.00;11.63;;;15.50;99.90;;;;;;5001923;28;20694;-86
2022/10/14 05:10:31;;;;;;;22.80;18.00;;;15.60;99.90;;;;;;5002576;28;20243;-85
2022/10/14 05:12:57;;;;;;;12.80;10.80;;;15.50;99.90;;;;;;5000023;28;20195;-87
2022/10/14 05:15:24;;;;;;;12.57;10.70;;;15.40;99.90;;;;;;5002407;28;20182;-87
2022/10/14 05:17:49;;;;;;;15.53;11.60;;;15.40;99.90;;;;;;5020569;28;20170;-84
2022/10/14 05:20:15;;;;;;;16.50;11.63;;;15.40;99.90;;;;;;5020844;28;20243;-86
2022/10/14 05:22:44;;;;;;;12.10;10.80;;;15.40;99.90;;;;;;5020451;28;20205;-85
2022/10/14 05:25:13;;;;;;;12.87;10.97;;;15.50;99.90;;;;;;5020563;28;20195;-86
2022/10/14 05:27:57;;;;;;;12.07;10.70;;;15.40;99.90;;;;;;5018495;28;20179;-85
2022/10/14 05:31:02;;;;;;;13.27;10.90;;;15.50;99.90;;;;;;5009347;28;20194;-86
2022/10/14 05:33:42;;;;;;;13.37;11.17;;;15.50;99.90;;;;;;5007572;28;20168;-87
2022/10/14 05:36:08;;;;;;;15.17;11.10;;;15.50;99.90;;;;;;5001874;28;20175;-84
2022/10/14 05:38:34;;;;;;;12.70;11.10;;;15.50;99.90;;;;;;5003449;28;20206;-90
2022/10/14 05:41:02;;;;;;;15.03;11.07;;;15.50;99.90;;;;;;4982197;28;20182;-84
2022/10/14 05:43:27;;;;;;;15.63;10.70;;;15.60;99.90;;;;;;4981801;28;20207;-85
2022/10/14 05:45:53;;;;;;;16.90;11.33;;;15.50;99.90;;;;;;4979046;28;20241;-85
2022/10/14 05:48:22;;;;;;;38.10;14.87;;;15.60;99.90;;;;;;4979757;28;20191;-85
2022/10/14 05:50:48;;;;;;;18.63;11.33;;;15.60;99.90;;;;;;4963661;28;20198;-85
2022/10/14 05:53:15;;;;;;;14.53;10.93;;;15.70;99.90;;;;;;4980531;28;20175;-84
2022/10/14 05:55:40;;;;;;;14.67;10.57;;;15.60;99.90;;;;;;4980804;28;20270;-83
2022/10/14 05:58:06;;;;;;;13.90;10.53;;;15.50;99.90;;;;;;4980584;28;20176;-86
2022/10/14 06:00:32;;;;;;;13.70;10.00;;;15.50;99.90;;;;;;4982365;28;20239;-85
2022/10/14 06:03:02;;;;;;;12.80;10.30;;;15.40;99.90;;;;;;4981497;28;20203;-86
2022/10/14 06:05:28;;;;;;;11.80;9.70;;;15.40;99.90;;;;;;4980451;28;20202;-86
2022/10/14 06:07:54;;;;;;;13.53;9.77;;;15.40;99.90;;;;;;4979299;28;20174;-87
2022/10/14 06:10:20;;;;;;;12.50;10.03;;;15.50;99.90;;;;;;4979346;28;20231;-87
2022/10/14 06:12:46;;;;;;;13.27;10.23;;;15.40;99.90;;;;;;4975226;28;20180;-86
2022/10/14 06:15:11;;;;;;;12.93;10.43;;;15.40;99.90;;;;;;4958907;29;20176;-88
2022/10/14 06:17:37;;;;;;;12.20;9.50;;;15.50;99.90;;;;;;4974141;28;20253;-86
2022/10/14 06:20:03;;;;;;;11.83;9.87;;;15.50;99.90;;;;;;4962638;28;20176;-85
2022/10/14 06:22:29;;;;;;;13.00;10.17;;;15.40;99.90;;;;;;4979379;28;20214;-84
2022/10/14 06:24:56;;;;;;;12.40;10.23;;;15.50;99.90;;;;;;4976858;28;20366;-86
2022/10/14 06:27:48;;;;;;;12.47;10.43;;;15.50;99.90;;;;;;4977783;28;20161;-82
2022/10/14 06:30:15;;;;;;;12.97;9.83;;;15.50;99.90;;;;;;4973973;28;20176;-81
2022/10/14 06:32:41;;;;;;;11.80;10.07;;;15.40;99.90;;;;;;4964618;29;20181;-85
2022/10/14 06:35:07;;;;;;;14.40;10.77;;;15.40;99.90;;;;;;4965394;28;20179;-82
2022/10/14 06:37:34;;;;;;;13.37;10.30;;;15.50;99.90;;;;;;4962831;28;20705;-84
2022/10/14 06:40:00;;;;;;;12.97;10.97;;;15.50;99.90;;;;;;4960483;29;20177;-80
2022/10/14 06:42:26;;;;;;;16.73;11.57;;;15.50;99.90;;;;;;4963232;28;20304;-82
2022/10/14 06:44:51;;;;;;;13.93;11.40;;;15.50;99.90;;;;;;4966087;28;20251;-87
2022/10/14 06:47:17;;;;;;;12.67;11.07;;;15.50;99.90;;;;;;4965767;29;20189;-85
2022/10/14 06:49:42;;;;;;;14.27;11.43;;;15.70;99.90;;;;;;4965669;28;20177;-83
2022/10/14 06:52:10;;;;;;;13.83;11.97;;;15.70;99.90;;;;;;4971197;28;20160;-80
2022/10/14 06:54:36;;;;;;;14.03;11.03;;;15.60;99.90;;;;;;4962943;28;20260;-87
2022/10/14 06:57:02;;;;;;;13.03;10.77;;;15.60;99.90;;;;;;4963831;28;20180;-85
2022/10/14 06:59:28;;;;;;;14.67;12.07;;;15.60;99.90;;;;;;4963984;28;20180;-85
2022/10/14 07:01:55;;;;;;;16.57;12.23;;;15.60;99.90;;;;;;4959800;28;20226;-81
2022/10/14 07:04:20;;;;;;;12.73;10.47;;;15.50;99.90;;;;;;4964053;28;20672;-85
2022/10/14 07:06:50;;;;;;;12.47;10.90;;;15.70;99.90;;;;;;4963769;28;20165;-84
2022/10/14 07:09:16;;;;;;;12.13;10.83;;;15.60;99.90;;;;;;4964709;28;20214;-85
2022/10/14 07:11:48;;;;;;;13.23;10.57;;;15.60;99.90;;;;;;4967229;29;20176;-81
2022/10/14 07:14:16;;;;;;;10.70;9.50;;;15.60;99.90;;;;;;4966882;29;20184;-81
2022/10/14 07:16:44;;;;;;;12.63;10.30;;;15.50;99.90;;;;;;4971562;28;20324;-80
2022/10/14 07:19:10;;;;;;;14.17;11.17;;;15.60;99.90;;;;;;4966730;29;20176;-82
2022/10/14 07:21:37;;;;;;;14.50;10.47;;;15.70;99.90;;;;;;4960263;29;20270;-79
2022/10/14 07:24:03;;;;;;;12.97;10.47;;;15.70;99.90;;;;;;4957790;29;20623;-81
2022/10/14 07:26:31;;;;;;;10.63;9.53;;;15.80;99.90;;;;;;4957907;28;20180;-81
2022/10/14 07:28:57;;;;;;;11.10;10.00;;;15.80;99.90;;;;;;4958002;29;20180;-82
2022/10/14 07:31:25;;;;;;;11.90;9.77;;;15.80;99.90;;;;;;4957547;28;20168;-81
2022/10/14 07:33:53;;;;;;;11.47;9.77;;;15.80;99.90;;;;;;4959407;28;20165;-82
2022/10/14 07:36:19;;;;;;;13.30;10.20;;;15.80;99.90;;;;;;4962290;29;20184;-80
2022/10/14 07:38:47;;;;;;;10.50;9.10;;;15.80;99.90;;;;;;4972598;28;20199;-82
2022/10/14 07:41:17;;;;;;;10.37;8.70;;;15.80;99.90;;;;;;4973944;28;20196;-80
2022/10/14 07:43:48;;;;;;;9.43;8.50;;;15.80;99.90;;;;;;4957010;29;20755;-80
2022/10/14 07:46:16;;;;;;;11.20;8.83;;;15.80;99.90;;;;;;4969567;29;20184;-82
2022/10/14 07:48:49;;;;;;;12.07;9.60;;;15.80;99.90;;;;;;4964691;28;20168;-82
2022/10/14 07:51:18;;;;;;;9.90;8.67;;;15.80;99.90;;;;;;4966174;29;20584;-84
2022/10/14 07:54:08;;;;;;;10.57;8.63;;;15.80;99.90;;;;;;4966010;28;20231;-81
2022/10/14 07:57:08;;;;;;;9.80;8.50;;;15.80;99.90;;;;;;4973807;29;20162;-81
2022/10/14 07:59:47;;;;;;;11.07;7.87;;;15.90;99.90;;;;;;4974072;28;20187;-83
2022/10/14 08:02:29;;;;;;;8.57;7.60;;;15.90;99.90;;;;;;4975371;28;20212;-86
2022/10/14 08:04:57;;;;;;;9.47;7.63;;;15.80;99.90;;;;;;4967742;28;20196;-87
2022/10/14 08:07:28;;;;;;;8.70;7.60;;;16.00;99.90;;;;;;4966831;28;20169;-86
2022/10/14 08:09:53;;;;;;;9.27;7.83;;;15.90;99.90;;;;;;4964873;28;20184;-84
2022/10/14 08:12:20;;;;;;;7.77;6.97;;;15.90;99.90;;;;;;4971969;29;20535;-86
2022/10/14 08:14:45;;;;;;;8.33;7.20;;;16.00;99.90;;;;;;4962555;28;20650;-84
2022/10/14 08:17:12;;;;;;;11.30;8.00;;;16.00;99.90;;;;;;4960099;28;20271;-85
2022/10/14 08:19:38;;;;;;;8.27;7.00;;;16.00;99.90;;;;;;4958951;28;20219;-82
2022/10/14 08:22:03;;;;;;;8.70;7.27;;;16.00;99.90;;;;;;4957182;29;20180;-82
2022/10/14 08:24:31;;;;;;;10.07;7.50;;;16.10;99.90;;;;;;4959095;28;20684;-88
2022/10/14 08:26:59;;;;;;;10.43;6.80;;;16.00;99.90;;;;;;4948926;29;20197;-87
2022/10/14 08:29:26;;;;;;;10.33;6.87;;;16.00;99.90;;;;;;4959130;28;20164;-85
2022/10/14 08:31:54;;;;;;;11.33;6.60;;;16.10;99.90;;;;;;4958281;29;20178;-87
2022/10/14 08:34:20;;;;;;;6.37;5.30;;;16.20;99.90;;;;;;4958932;28;20181;-81
2022/10/14 08:36:49;;;;;;;9.23;6.27;;;16.10;99.90;;;;;;4958492;28;20625;-82
2022/10/14 08:39:19;;;;;;;12.83;6.40;;;16.10;99.90;;;;;;4957655;29;20178;-87
2022/10/14 08:41:48;;;;;;;7.13;5.90;;;16.10;99.90;;;;;;4959228;28;20615;-86
2022/10/14 08:44:21;;;;;;;9.73;6.07;;;16.10;99.90;;;;;;4958365;28;20211;-85
2022/10/14 08:46:51;;;;;;;6.53;5.53;;;16.10;99.90;;;;;;4956925;29;20192;-80
2022/10/14 08:49:20;;;;;;;6.03;5.23;;;16.10;99.90;;;;;;4957695;28;20184;-81
2022/10/14 08:51:52;;;;;;;7.33;5.80;;;16.10;99.90;;;;;;4958947;28;20187;-81
2022/10/14 08:54:30;;;;;;;6.63;5.47;;;16.20;99.90;;;;;;4958905;28;20636;-86
2022/10/14 08:56:57;;;;;;;6.20;5.60;;;16.10;99.90;;;;;;4958946;28;20168;-85
2022/10/14 08:59:25;;;;;;;7.23;5.70;;;16.30;99.90;;;;;;4959427;28;20575;-84
2022/10/14 09:02:13;;;;;;;7.53;5.37;;;16.40;99.90;;;;;;4958839;28;20247;-84
2022/10/14 09:04:39;;;;;;;7.20;5.70;;;16.30;99.90;;;;;;4970213;29;20230;-80
2022/10/14 09:07:05;;;;;;;7.10;5.90;;;16.40;99.90;;;;;;4978956;28;20172;-82
2022/10/14 09:09:40;;;;;;;6.93;5.60;;;16.40;99.90;;;;;;4978565;28;20204;-80
2022/10/14 09:12:11;;;;;;;7.67;5.50;;;16.30;99.90;;;;;;4975191;28;20172;-80
2022/10/14 09:15:04;;;;;;;7.13;4.83;;;16.30;99.90;;;;;;4963126;28;20185;-81
2022/10/14 09:18:04;;;;;;;6.70;5.00;;;16.40;99.90;;;;;;4959952;28;20196;-83
2022/10/14 09:20:36;;;;;;;4.90;4.40;;;16.40;99.90;;;;;;4957566;28;20475;-87
2022/10/14 09:23:11;;;;;;;5.47;4.47;;;16.30;99.90;;;;;;4959238;28;20291;-86
2022/10/14 09:25:40;;;;;;;6.23;4.37;;;16.30;99.90;;;;;;4959829;28;20183;-86
2022/10/14 09:28:08;;;;;;;6.93;5.03;;;16.20;99.90;;;;;;4958658;29;20187;-86
2022/10/14 09:30:37;;;;;;;5.20;4.43;;;16.20;99.90;;;;;;4980039;28;20165;-81
2022/10/14 09:33:04;;;;;;;5.47;4.50;;;16.20;99.90;;;;;;4962789;29;20248;-84
2022/10/14 09:35:39;;;;;;;6.10;4.83;;;16.20;99.90;;;;;;4966273;28;20196;-81
2022/10/14 09:38:06;;;;;;;7.67;4.10;;;16.20;99.90;;;;;;4957585;28;20191;-82
2022/10/14 09:40:52;;;;;;;6.97;4.23;;;16.40;99.90;;;;;;4956277;28;20259;-81
2022/10/14 09:43:23;;;;;;;5.73;4.33;;;16.40;99.90;;;;;;4957172;28;20208;-82
2022/10/14 09:46:06;;;;;;;8.93;4.30;;;16.60;99.90;;;;;;4958923;28;20181;-83
2022/10/14 09:48:38;;;;;;;5.00;3.10;;;16.90;99.90;;;;;;4955949;28;20208;-83
2022/10/14 09:51:28;;;;;;;4.97;3.70;;;16.90;99.90;;;;;;4957232;28;20165;-82
2022/10/14 09:53:57;;;;;;;4.07;3.53;;;16.70;99.90;;;;;;4957673;29;20247;-80
2022/10/14 09:56:35;;;;;;;6.10;3.73;;;16.60;99.90;;;;;;4941505;29;20177;-82
2022/10/14 09:59:03;;;;;;;3.80;3.40;;;16.60;99.90;;;;;;4956679;29;20245;-80
2022/10/14 10:01:36;;;;;;;7.17;3.60;;;16.60;99.90;;;;;;4967107;28;20200;-85
2022/10/14 10:04:30;;;;;;;5.27;3.73;;;16.50;99.90;;;;;;4965168;28;20699;-82
2022/10/14 10:06:56;;;;;;;7.27;3.80;;;16.50;99.90;;;;;;4962074;28;20215;-81
2022/10/14 10:09:22;;;;;;;5.73;3.93;;;16.50;99.90;;;;;;4962484;28;20188;-82
2022/10/14 10:11:48;;;;;;;5.90;4.10;;;16.50;99.90;;;;;;4956001;28;20173;-82
2022/10/14 10:14:16;;;;;;;4.23;3.83;;;16.70;99.90;;;;;;4961118;28;20198;-86
2022/10/14 10:16:42;;;;;;;6.10;4.13;;;16.80;99.90;;;;;;4957219;28;20160;-81
2022/10/14 10:19:40;;;;;;;3.87;3.43;;;16.80;99.90;;;;;;4956242;28;20164;-80
2022/10/14 10:22:26;;;;;;;5.23;4.43;;;16.80;99.90;;;;;;4955986;29;20176;-81
2022/10/14 10:25:00;;;;;;;7.83;4.50;;;16.70;99.90;;;;;;4956918;28;20204;-82
2022/10/14 10:27:34;;;;;;;5.73;4.93;;;16.60;99.90;;;;;;4959003;28;20250;-81
2022/10/14 10:30:13;;;;;;;6.73;5.40;;;16.60;99.90;;;;;;4958839;29;20176;-80
2022/10/14 10:33:05;;;;;;;5.37;4.47;;;16.50;99.90;;;;;;4956582;28;20200;-82
2022/10/14 10:36:01;;;;;;;5.70;4.80;;;16.60;99.90;;;;;;4955002;28;20192;-82
2022/10/14 10:38:48;;;;;;;6.07;5.47;;;16.60;99.90;;;;;;4954454;28;20187;-81
2022/10/14 10:41:48;;;;;;;6.70;5.67;;;16.80;99.90;;;;;;4955601;28;20177;-81
2022/10/14 10:44:58;;;;;;;5.83;5.23;;;16.70;99.90;;;;;;4957660;28;20226;-79
2022/10/14 10:47:39;;;;;;;8.27;6.30;;;16.70;99.90;;;;;;4965996;28;20176;-81
2022/10/14 10:50:39;;;;;;;6.23;5.53;;;16.70;99.90;;;;;;4968735;28;20213;-81
2022/10/14 10:53:35;;;;;;;6.77;6.13;;;16.70;99.90;;;;;;4961668;29;20207;-80
2022/10/14 10:56:23;;;;;;;6.83;6.13;;;16.80;99.90;;;;;;4955255;28;20184;-81
2022/10/14 10:59:17;;;;;;;9.33;7.03;;;16.80;99.90;;;;;;4955804;28;20179;-80
2022/10/14 11:01:58;;;;;;;7.07;6.40;;;16.70;99.90;;;;;;4954648;28;20204;-80
2022/10/14 11:04:39;;;;;;;8.47;6.53;;;16.60;99.90;;;;;;4955809;28;20255;-81
2022/10/14 11:13:41;;;;;;;8.60;7.50;;;16.50;99.90;;;;;;4956091;29;20242;-80
2022/10/14 11:16:34;;;;;;;11.13;8.67;;;16.70;99.90;;;;;;4955454;28;20689;-81
2022/10/14 11:19:18;;;;;;;8.37;7.57;;;16.70;99.90;;;;;;4954516;28;20172;-81
2022/10/14 11:22:03;;;;;;;9.47;8.10;;;16.80;99.90;;;;;;4955211;29;20176;-87
2022/10/14 11:24:57;;;;;;;9.80;8.80;;;16.80;99.90;;;;;;4956596;28;20251;-82
2022/10/14 11:27:46;;;;;;;7.90;7.10;;;16.90;99.90;;;;;;4956955;28;20632;-80
2022/10/14 11:30:27;;;;;;;7.77;6.63;;;16.80;99.90;;;;;;4959756;29;20583;-81
2022/10/14 11:33:22;;;;;;;7.30;6.63;;;16.90;99.90;;;;;;4961735;28;20243;-83
2022/10/14 11:36:20;;;;;;;8.07;6.57;;;17.00;99.90;;;;;;4968156;28;20169;-82
2022/10/14 11:38:58;;;;;;;6.57;5.53;;;17.20;99.90;;;;;;4965851;29;20195;-80
2022/10/14 11:41:34;;;;;;;6.00;5.40;;;17.30;99.90;;;;;;4965062;28;20154;-85
2022/10/14 11:43:59;;;;;;;6.83;6.13;;;17.30;99.90;;;;;;4963634;29;20256;-87
2022/10/14 11:46:33;;;;;;;6.53;5.87;;;17.60;99.90;;;;;;4960736;28;20172;-80
2022/10/14 11:49:09;;;;;;;7.70;6.90;;;17.60;99.90;;;;;;4943335;29;20229;-81
2022/10/14 11:51:44;;;;;;;8.23;7.43;;;17.90;99.90;;;;;;4956144;28;20182;-80
2022/10/14 11:54:15;;;;;;;8.43;7.30;;;17.70;99.90;;;;;;4958529;28;20173;-82
2022/10/14 11:56:55;;;;;;;9.93;7.80;;;17.60;99.90;;;;;;4958252;28;20172;-85
2022/10/14 11:59:46;;;;;;;8.17;6.77;;;17.70;99.90;;;;;;4960758;28;20651;-81
2022/10/14 12:02:39;;;;;;;7.47;6.77;;;17.70;99.90;;;;;;4959959;28;20188;-85
2022/10/14 12:05:22;;;;;;;9.53;7.90;;;17.80;99.90;;;;;;4963339;28;20612;-87
2022/10/14 12:08:03;;;;;;;9.87;8.87;;;17.80;99.90;;;;;;4963085;29;20161;-86
2022/10/14 12:10:37;;;;;;;10.70;9.63;;;17.90;99.90;;;;;;4971465;28;20197;-86
2022/10/14 12:13:12;;;;;;;10.30;9.30;;;18.10;99.90;;;;;;4972794;28;20289;-79
2022/10/14 12:15:45;;;;;;;11.07;9.80;;;17.90;99.90;;;;;;4959257;29;20173;-86
2022/10/14 12:18:12;;;;;;;12.10;10.87;;;17.90;99.90;;;;;;4953557;29;20192;-85
2022/10/14 12:20:56;;;;;;;11.93;10.73;;;17.80;99.90;;;;;;4969970;29;20177;-81
2022/10/14 12:23:28;;;;;;;13.10;11.70;;;17.80;99.90;;;;;;4966784;28;20196;-88
2022/10/14 12:26:23;;;;;;;16.23;10.50;;;17.80;99.90;;;;;;4969931;28;20165;-86
2022/10/14 12:29:13;;;;;;;13.10;11.90;;;17.90;99.90;;;;;;4973122;28;20215;-84
2022/10/14 12:31:39;;;;;;;12.73;11.43;;;18.10;99.90;;;;;;4975227;28;20179;-86
2022/10/14 12:34:29;;;;;;;13.90;12.40;;;18.10;99.90;;;;;;4976487;29;20221;-87
2022/10/14 12:36:59;;;;;;;12.77;11.67;;;18.20;99.90;;;;;;4969084;29;20243;-81
2022/10/14 12:39:42;;;;;;;12.57;11.37;;;18.10;99.90;;;;;;4970642;29;20179;-84
2022/10/14 12:42:14;;;;;;;12.30;11.20;;;18.10;99.90;;;;;;4977288;28;20179;-84
2022/10/14 12:44:54;;;;;;;12.93;11.63;;;18.10;99.90;;;;;;4977661;28;20203;-81
2022/10/14 12:47:37;;;;;;;12.87;11.67;;;18.20;99.90;;;;;;4970345;28;20224;-84
2022/10/14 12:50:34;;;;;;;12.37;11.17;;;18.30;99.70;;;;;;4967589;29;20187;-86
2022/10/14 12:53:05;;;;;;;12.57;11.27;;;18.20;98.30;;;;;;4966829;28;20175;-85
2022/10/14 12:56:03;;;;;;;12.47;11.27;;;18.40;96.90;;;;;;4967577;28;20254;-87
2022/10/14 12:58:55;;;;;;;12.60;11.43;;;18.40;95.40;;;;;;4973803;28;20200;-86
2022/10/14 13:01:22;;;;;;;13.80;12.40;;;18.30;94.90;;;;;;4981812;28;20200;-86
2022/10/14 13:04:05;;;;;;;12.40;11.20;;;18.30;96.40;;;;;;4994433;28;20220;-86
2022/10/14 13:10:19;;;;;;;12.97;11.67;;;18.70;93.50;;;;;;4998021;28;20209;-83